Itambe, Brazil
Current Conditions -  °F | °C
As of 11:37 PM on Thursday 27 Nov 2014 (Local Time) from SBQV Reporting Station
Few Clouds Few Clouds  
Wind Chill: 66°   Ceiling: Unl
Heat Index: 66°   Visibility: 6mi
Dew Point: 66°   Wind: 7mph
Humidity: 100%   Direction: 110°ESE
Pressure: 30.06"   Gusts: NA
Location:  15.25°S, 40.62°W
Report Text: SBQV 280237Z 11006KT 9999 FEW010 19/19 Q1018
Loading
Personal Weather Stations






























Interactive Weather Map New forecast layout! Learn more

10-Day Weather Forecast

Advertisements
Track Severe Weather on mobile